sensor_id;sensor_type;location;lat;lon;timestamp;P1;durP1;ratioP1;P2;durP2;ratioP2
75417;SDS011;63997;52.112;5.420;2023-03-03T00:01:42;17.42;;;9.70;;
75417;SDS011;63997;52.112;5.420;2023-03-03T00:04:08;18.43;;;9.17;;
75417;SDS011;63997;52.112;5.420;2023-03-03T00:06:35;17.70;;;8.68;;
75417;SDS011;63997;52.112;5.420;2023-03-03T00:09:01;17.70;;;9.70;;
75417;SDS011;63997;52.112;5.420;2023-03-03T00:11:28;18.13;;;8.25;;
75417;SDS011;63997;52.112;5.420;2023-03-03T00:13:54;16.15;;;9.20;;
75417;SDS011;63997;52.112;5.420;2023-03-03T00:16:33;16.50;;;8.67;;
75417;SDS011;63997;52.112;5.420;2023-03-03T00:19:02;17.75;;;8.95;;
75417;SDS011;63997;52.112;5.420;2023-03-03T00:21:38;18.48;;;8.48;;
75417;SDS011;63997;52.112;5.420;2023-03-03T00:24:13;14.45;;;7.53;;
75417;SDS011;63997;52.112;5.420;2023-03-03T00:26:41;15.15;;;7.57;;
75417;SDS011;63997;52.112;5.420;2023-03-03T00:32:46;13.65;;;7.68;;
75417;SDS011;63997;52.112;5.420;2023-03-03T00:35:16;18.73;;;8.38;;
75417;SDS011;63997;52.112;5.420;2023-03-03T00:37:50;21.52;;;9.15;;
75417;SDS011;63997;52.112;5.420;2023-03-03T00:40:24;19.13;;;9.25;;
75417;SDS011;63997;52.112;5.420;2023-03-03T00:42:56;14.87;;;8.83;;
75417;SDS011;63997;52.112;5.420;2023-03-03T00:45:28;15.85;;;9.45;;
75417;SDS011;63997;52.112;5.420;2023-03-03T00:53:48;19.70;;;9.98;;
75417;SDS011;63997;52.112;5.420;2023-03-03T00:56:15;18.90;;;9.23;;
75417;SDS011;63997;52.112;5.420;2023-03-03T00:58:41;20.75;;;9.20;;
75417;SDS011;63997;52.112;5.420;2023-03-03T01:01:10;21.75;;;10.68;;
75417;SDS011;63997;52.112;5.420;2023-03-03T01:03:37;21.95;;;9.68;;
75417;SDS011;63997;52.112;5.420;2023-03-03T01:06:03;17.52;;;9.73;;
75417;SDS011;63997;52.112;5.420;2023-03-03T01:08:30;20.10;;;9.67;;
75417;SDS011;63997;52.112;5.420;2023-03-03T01:10:57;21.00;;;10.40;;
75417;SDS011;63997;52.112;5.420;2023-03-03T01:13:30;20.38;;;10.13;;
75417;SDS011;63997;52.112;5.420;2023-03-03T01:15:59;20.65;;;9.48;;
75417;SDS011;63997;52.112;5.420;2023-03-03T01:18:26;21.85;;;9.90;;
75417;SDS011;63997;52.112;5.420;2023-03-03T01:20:53;19.87;;;10.97;;
75417;SDS011;63997;52.112;5.420;2023-03-03T01:23:19;24.73;;;10.90;;
75417;SDS011;63997;52.112;5.420;2023-03-03T01:25:46;22.52;;;11.13;;
75417;SDS011;63997;52.112;5.420;2023-03-03T01:28:13;21.00;;;10.10;;
75417;SDS011;63997;52.112;5.420;2023-03-03T01:30:39;20.38;;;10.05;;
75417;SDS011;63997;52.112;5.420;2023-03-03T01:33:06;21.47;;;10.50;;
75417;SDS011;63997;52.112;5.420;2023-03-03T01:35:32;23.30;;;10.55;;
75417;SDS011;63997;52.112;5.420;2023-03-03T01:38:01;22.63;;;11.35;;
75417;SDS011;63997;52.112;5.420;2023-03-03T01:40:28;20.60;;;12.25;;
75417;SDS011;63997;52.112;5.420;2023-03-03T01:42:57;22.38;;;10.35;;
75417;SDS011;63997;52.112;5.420;2023-03-03T01:45:25;26.07;;;11.73;;
75417;SDS011;63997;52.112;5.420;2023-03-03T01:47:55;23.98;;;12.40;;
75417;SDS011;63997;52.112;5.420;2023-03-03T01:50:30;22.38;;;9.90;;
75417;SDS011;63997;52.112;5.420;2023-03-03T01:53:04;23.95;;;11.02;;
75417;SDS011;63997;52.112;5.420;2023-03-03T01:55:38;22.88;;;10.65;;
75417;SDS011;63997;52.112;5.420;2023-03-03T02:00:47;19.20;;;9.43;;
75417;SDS011;63997;52.112;5.420;2023-03-03T02:03:17;20.23;;;9.70;;
75417;SDS011;63997;52.112;5.420;2023-03-03T02:05:46;23.33;;;10.73;;
75417;SDS011;63997;52.112;5.420;2023-03-03T02:08:13;22.10;;;10.10;;
75417;SDS011;63997;52.112;5.420;2023-03-03T02:10:43;24.90;;;11.63;;
75417;SDS011;63997;52.112;5.420;2023-03-03T02:13:11;22.05;;;10.73;;
75417;SDS011;63997;52.112;5.420;2023-03-03T02:15:38;21.70;;;10.27;;
75417;SDS011;63997;52.112;5.420;2023-03-03T02:18:09;22.80;;;10.93;;
75417;SDS011;63997;52.112;5.420;2023-03-03T02:23:18;21.73;;;10.20;;
75417;SDS011;63997;52.112;5.420;2023-03-03T02:26:08;22.27;;;10.00;;
75417;SDS011;63997;52.112;5.420;2023-03-03T02:28:37;25.92;;;10.73;;
75417;SDS011;63997;52.112;5.420;2023-03-03T02:31:05;23.08;;;12.43;;
75417;SDS011;63997;52.112;5.420;2023-03-03T02:33:39;22.70;;;11.27;;
75417;SDS011;63997;52.112;5.420;2023-03-03T02:36:13;26.47;;;10.80;;
75417;SDS011;63997;52.112;5.420;2023-03-03T02:38:54;21.92;;;9.35;;
75417;SDS011;63997;52.112;5.420;2023-03-03T02:41:33;21.83;;;10.15;;
75417;SDS011;63997;52.112;5.420;2023-03-03T02:46:33;20.20;;;10.05;;
75417;SDS011;63997;52.112;5.420;2023-03-03T02:49:05;22.40;;;9.73;;
75417;SDS011;63997;52.112;5.420;2023-03-03T02:51:33;19.10;;;8.43;;
75417;SDS011;63997;52.112;5.420;2023-03-03T02:54:00;21.95;;;8.70;;
75417;SDS011;63997;52.112;5.420;2023-03-03T02:56:27;17.77;;;8.85;;
75417;SDS011;63997;52.112;5.420;2023-03-03T02:58:54;19.65;;;8.60;;
75417;SDS011;63997;52.112;5.420;2023-03-03T03:01:20;19.00;;;8.67;;
75417;SDS011;63997;52.112;5.420;2023-03-03T03:03:47;19.23;;;7.90;;
75417;SDS011;63997;52.112;5.420;2023-03-03T03:06:14;18.55;;;9.25;;
75417;SDS011;63997;52.112;5.420;2023-03-03T03:08:40;19.52;;;9.15;;
75417;SDS011;63997;52.112;5.420;2023-03-03T03:11:06;22.50;;;9.98;;
75417;SDS011;63997;52.112;5.420;2023-03-03T03:13:33;26.30;;;10.77;;
75417;SDS011;63997;52.112;5.420;2023-03-03T03:15:59;23.48;;;9.93;;
75417;SDS011;63997;52.112;5.420;2023-03-03T03:18:26;22.63;;;9.85;;
75417;SDS011;63997;52.112;5.420;2023-03-03T03:20:53;22.05;;;9.68;;
75417;SDS011;63997;52.112;5.420;2023-03-03T03:23:20;23.02;;;10.00;;
75417;SDS011;63997;52.112;5.420;2023-03-03T03:25:49;25.03;;;9.50;;
75417;SDS011;63997;52.112;5.420;2023-03-03T03:28:16;25.50;;;9.55;;
75417;SDS011;63997;52.112;5.420;2023-03-03T03:30:43;23.85;;;9.98;;
75417;SDS011;63997;52.112;5.420;2023-03-03T03:33:11;24.38;;;9.82;;
75417;SDS011;63997;52.112;5.420;2023-03-03T03:35:37;23.50;;;10.32;;
75417;SDS011;63997;52.112;5.420;2023-03-03T03:38:05;25.43;;;10.70;;
75417;SDS011;63997;52.112;5.420;2023-03-03T03:40:31;25.20;;;10.65;;
75417;SDS011;63997;52.112;5.420;2023-03-03T03:42:58;25.40;;;10.32;;
75417;SDS011;63997;52.112;5.420;2023-03-03T03:45:24;22.25;;;9.50;;
75417;SDS011;63997;52.112;5.420;2023-03-03T03:47:51;21.48;;;9.75;;
75417;SDS011;63997;52.112;5.420;2023-03-03T03:50:17;23.43;;;9.70;;
75417;SDS011;63997;52.112;5.420;2023-03-03T03:52:43;21.35;;;10.57;;
75417;SDS011;63997;52.112;5.420;2023-03-03T03:55:10;26.40;;;11.65;;
75417;SDS011;63997;52.112;5.420;2023-03-03T03:57:36;26.08;;;10.25;;
75417;SDS011;63997;52.112;5.420;2023-03-03T04:00:04;30.88;;;12.40;;
75417;SDS011;63997;52.112;5.420;2023-03-03T04:02:31;21.97;;;9.83;;
75417;SDS011;63997;52.112;5.420;2023-03-03T04:04:57;27.75;;;11.02;;
75417;SDS011;63997;52.112;5.420;2023-03-03T04:07:23;24.45;;;10.68;;
75417;SDS011;63997;52.112;5.420;2023-03-03T04:09:50;27.77;;;11.93;;
75417;SDS011;63997;52.112;5.420;2023-03-03T04:12:16;25.42;;;11.73;;
75417;SDS011;63997;52.112;5.420;2023-03-03T04:14:43;27.73;;;12.00;;
75417;SDS011;63997;52.112;5.420;2023-03-03T04:17:14;24.35;;;9.65;;
75417;SDS011;63997;52.112;5.420;2023-03-03T04:19:42;26.58;;;11.05;;
75417;SDS011;63997;52.112;5.420;2023-03-03T04:22:09;24.75;;;10.90;;
75417;SDS011;63997;52.112;5.420;2023-03-03T04:24:35;23.67;;;10.73;;
75417;SDS011;63997;52.112;5.420;2023-03-03T04:27:01;27.23;;;9.93;;
75417;SDS011;63997;52.112;5.420;2023-03-03T04:29:28;25.50;;;10.68;;
75417;SDS011;63997;52.112;5.420;2023-03-03T04:31:54;24.85;;;9.68;;
75417;SDS011;63997;52.112;5.420;2023-03-03T04:34:21;27.02;;;10.60;;
75417;SDS011;63997;52.112;5.420;2023-03-03T04:36:48;23.50;;;9.35;;
75417;SDS011;63997;52.112;5.420;2023-03-03T04:39:14;25.97;;;9.87;;
75417;SDS011;63997;52.112;5.420;2023-03-03T04:41:40;21.63;;;9.05;;
75417;SDS011;63997;52.112;5.420;2023-03-03T04:44:07;21.55;;;8.43;;
75417;SDS011;63997;52.112;5.420;2023-03-03T04:46:33;19.90;;;9.60;;
75417;SDS011;63997;52.112;5.420;2023-03-03T04:48:59;22.00;;;8.15;;
75417;SDS011;63997;52.112;5.420;2023-03-03T04:51:26;23.30;;;8.97;;
75417;SDS011;63997;52.112;5.420;2023-03-03T04:53:52;21.30;;;8.38;;
75417;SDS011;63997;52.112;5.420;2023-03-03T04:56:19;21.20;;;9.02;;
75417;SDS011;63997;52.112;5.420;2023-03-03T04:58:45;22.88;;;8.93;;
75417;SDS011;63997;52.112;5.420;2023-03-03T05:01:12;23.02;;;9.02;;
75417;SDS011;63997;52.112;5.420;2023-03-03T05:03:39;21.40;;;8.43;;
75417;SDS011;63997;52.112;5.420;2023-03-03T05:06:06;32.47;;;11.07;;
75417;SDS011;63997;52.112;5.420;2023-03-03T05:08:32;22.15;;;9.15;;
75417;SDS011;63997;52.112;5.420;2023-03-03T05:10:59;26.27;;;9.45;;
75417;SDS011;63997;52.112;5.420;2023-03-03T05:13:26;26.05;;;10.27;;
75417;SDS011;63997;52.112;5.420;2023-03-03T05:15:53;25.67;;;9.43;;
75417;SDS011;63997;52.112;5.420;2023-03-03T05:18:21;27.45;;;9.85;;
75417;SDS011;63997;52.112;5.420;2023-03-03T05:20:49;24.55;;;10.05;;
75417;SDS011;63997;52.112;5.420;2023-03-03T05:23:17;26.10;;;9.55;;
75417;SDS011;63997;52.112;5.420;2023-03-03T05:25:46;23.83;;;8.52;;
75417;SDS011;63997;52.112;5.420;2023-03-03T05:28:13;26.37;;;9.53;;
75417;SDS011;63997;52.112;5.420;2023-03-03T05:30:40;23.95;;;9.07;;
75417;SDS011;63997;52.112;5.420;2023-03-03T05:33:06;24.83;;;9.57;;
75417;SDS011;63997;52.112;5.420;2023-03-03T05:35:33;21.40;;;8.50;;
75417;SDS011;63997;52.112;5.420;2023-03-03T05:37:59;24.33;;;10.15;;
75417;SDS011;63997;52.112;5.420;2023-03-03T05:40:28;25.10;;;9.13;;
75417;SDS011;63997;52.112;5.420;2023-03-03T05:42:55;24.38;;;8.82;;
75417;SDS011;63997;52.112;5.420;2023-03-03T05:45:21;23.85;;;9.65;;
75417;SDS011;63997;52.112;5.420;2023-03-03T05:47:49;24.95;;;8.60;;
75417;SDS011;63997;52.112;5.420;2023-03-03T05:50:17;23.95;;;9.25;;
75417;SDS011;63997;52.112;5.420;2023-03-03T05:52:46;22.40;;;9.37;;
75417;SDS011;63997;52.112;5.420;2023-03-03T05:55:14;22.88;;;8.57;;
75417;SDS011;63997;52.112;5.420;2023-03-03T05:57:41;25.88;;;9.63;;
75417;SDS011;63997;52.112;5.420;2023-03-03T06:00:07;28.40;;;8.88;;
75417;SDS011;63997;52.112;5.420;2023-03-03T06:02:34;25.20;;;8.93;;
75417;SDS011;63997;52.112;5.420;2023-03-03T06:05:00;23.53;;;9.57;;
75417;SDS011;63997;52.112;5.420;2023-03-03T06:07:27;31.75;;;9.27;;
75417;SDS011;63997;52.112;5.420;2023-03-03T06:09:53;25.08;;;9.25;;
75417;SDS011;63997;52.112;5.420;2023-03-03T06:12:19;29.42;;;10.90;;
75417;SDS011;63997;52.112;5.420;2023-03-03T06:14:47;28.58;;;9.57;;
75417;SDS011;63997;52.112;5.420;2023-03-03T06:17:13;26.93;;;9.30;;
75417;SDS011;63997;52.112;5.420;2023-03-03T06:19:40;27.90;;;10.00;;
75417;SDS011;63997;52.112;5.420;2023-03-03T06:22:06;33.17;;;9.85;;
75417;SDS011;63997;52.112;5.420;2023-03-03T06:24:33;25.90;;;9.05;;
75417;SDS011;63997;52.112;5.420;2023-03-03T06:27:00;22.45;;;8.82;;
75417;SDS011;63997;52.112;5.420;2023-03-03T06:29:27;23.40;;;7.37;;
75417;SDS011;63997;52.112;5.420;2023-03-03T06:31:54;18.83;;;6.88;;
75417;SDS011;63997;52.112;5.420;2023-03-03T06:34:20;22.95;;;7.93;;
75417;SDS011;63997;52.112;5.420;2023-03-03T06:36:46;16.80;;;6.70;;
75417;SDS011;63997;52.112;5.420;2023-03-03T06:39:14;10.90;;;5.40;;
75417;SDS011;63997;52.112;5.420;2023-03-03T06:41:41;14.87;;;5.87;;
75417;SDS011;63997;52.112;5.420;2023-03-03T06:44:07;16.65;;;6.45;;
75417;SDS011;63997;52.112;5.420;2023-03-03T06:46:33;17.25;;;5.63;;
75417;SDS011;63997;52.112;5.420;2023-03-03T06:49:00;13.05;;;5.47;;
75417;SDS011;63997;52.112;5.420;2023-03-03T06:51:33;18.20;;;5.57;;
75417;SDS011;63997;52.112;5.420;2023-03-03T06:54:01;19.37;;;6.93;;
75417;SDS011;63997;52.112;5.420;2023-03-03T06:56:36;10.75;;;4.97;;
75417;SDS011;63997;52.112;5.420;2023-03-03T06:59:10;16.63;;;5.70;;
75417;SDS011;63997;52.112;5.420;2023-03-03T07:01:39;14.57;;;5.95;;
75417;SDS011;63997;52.112;5.420;2023-03-03T07:04:11;17.05;;;6.65;;
75417;SDS011;63997;52.112;5.420;2023-03-03T07:06:48;15.80;;;5.33;;
75417;SDS011;63997;52.112;5.420;2023-03-03T07:09:18;12.25;;;5.18;;
75417;SDS011;63997;52.112;5.420;2023-03-03T07:11:47;16.90;;;5.38;;
75417;SDS011;63997;52.112;5.420;2023-03-03T07:14:15;16.20;;;6.43;;
75417;SDS011;63997;52.112;5.420;2023-03-03T07:16:44;21.75;;;6.13;;
75417;SDS011;63997;52.112;5.420;2023-03-03T07:19:18;15.33;;;6.17;;
75417;SDS011;63997;52.112;5.420;2023-03-03T07:21:49;13.80;;;5.15;;
75417;SDS011;63997;52.112;5.420;2023-03-03T07:24:27;17.63;;;5.90;;
75417;SDS011;63997;52.112;5.420;2023-03-03T07:26:58;15.48;;;5.63;;
75417;SDS011;63997;52.112;5.420;2023-03-03T07:29:32;16.48;;;5.85;;
75417;SDS011;63997;52.112;5.420;2023-03-03T07:32:00;13.33;;;5.87;;
75417;SDS011;63997;52.112;5.420;2023-03-03T07:34:42;14.45;;;5.82;;
75417;SDS011;63997;52.112;5.420;2023-03-03T07:40:00;15.07;;;5.82;;
75417;SDS011;63997;52.112;5.420;2023-03-03T07:42:39;16.35;;;6.20;;
75417;SDS011;63997;52.112;5.420;2023-03-03T07:48:00;18.83;;;6.50;;
75417;SDS011;63997;52.112;5.420;2023-03-03T07:50:41;13.63;;;5.80;;
75417;SDS011;63997;52.112;5.420;2023-03-03T07:53:11;15.70;;;6.07;;
75417;SDS011;63997;52.112;5.420;2023-03-03T07:55:46;15.30;;;5.57;;
75417;SDS011;63997;52.112;5.420;2023-03-03T08:03:28;15.32;;;6.18;;
75417;SDS011;63997;52.112;5.420;2023-03-03T08:05:56;12.40;;;5.82;;
75417;SDS011;63997;52.112;5.420;2023-03-03T08:08:32;15.60;;;5.78;;
75417;SDS011;63997;52.112;5.420;2023-03-03T08:11:03;16.37;;;5.77;;
75417;SDS011;63997;52.112;5.420;2023-03-03T08:16:03;15.32;;;5.85;;
75417;SDS011;63997;52.112;5.420;2023-03-03T08:18:50;16.50;;;4.80;;
75417;SDS011;63997;52.112;5.420;2023-03-03T08:21:19;16.00;;;5.38;;
75417;SDS011;63997;52.112;5.420;2023-03-03T08:23:46;11.67;;;4.60;;
75417;SDS011;63997;52.112;5.420;2023-03-03T08:26:17;16.35;;;6.25;;
75417;SDS011;63997;52.112;5.420;2023-03-03T08:28:45;10.38;;;4.97;;
75417;SDS011;63997;52.112;5.420;2023-03-03T08:31:12;12.57;;;5.10;;
75417;SDS011;63997;52.112;5.420;2023-03-03T08:33:50;11.88;;;5.40;;
75417;SDS011;63997;52.112;5.420;2023-03-03T08:36:17;10.33;;;4.80;;
75417;SDS011;63997;52.112;5.420;2023-03-03T08:38:44;12.52;;;4.85;;
75417;SDS011;63997;52.112;5.420;2023-03-03T08:41:10;12.85;;;5.10;;
75417;SDS011;63997;52.112;5.420;2023-03-03T08:43:36;11.35;;;4.93;;
75417;SDS011;63997;52.112;5.420;2023-03-03T08:46:03;10.27;;;4.15;;
75417;SDS011;63997;52.112;5.420;2023-03-03T08:48:31;9.33;;;4.07;;
75417;SDS011;63997;52.112;5.420;2023-03-03T08:50:58;8.80;;;4.35;;
75417;SDS011;63997;52.112;5.420;2023-03-03T08:53:26;8.45;;;3.78;;
75417;SDS011;63997;52.112;5.420;2023-03-03T08:55:53;10.45;;;4.35;;
75417;SDS011;63997;52.112;5.420;2023-03-03T08:58:19;8.15;;;4.57;;
75417;SDS011;63997;52.112;5.420;2023-03-03T09:00:59;11.03;;;4.30;;
75417;SDS011;63997;52.112;5.420;2023-03-03T09:03:26;8.02;;;4.10;;
75417;SDS011;63997;52.112;5.420;2023-03-03T09:05:52;9.73;;;4.32;;
75417;SDS011;63997;52.112;5.420;2023-03-03T09:08:19;9.45;;;4.43;;
75417;SDS011;63997;52.112;5.420;2023-03-03T09:10:45;8.30;;;3.70;;
75417;SDS011;63997;52.112;5.420;2023-03-03T09:13:16;12.57;;;4.07;;
75417;SDS011;63997;52.112;5.420;2023-03-03T09:15:46;8.48;;;4.05;;
75417;SDS011;63997;52.112;5.420;2023-03-03T09:18:18;8.85;;;3.65;;
75417;SDS011;63997;52.112;5.420;2023-03-03T09:21:00;9.93;;;3.53;;
75417;SDS011;63997;52.112;5.420;2023-03-03T09:23:28;7.07;;;3.10;;
75417;SDS011;63997;52.112;5.420;2023-03-03T09:25:58;6.27;;;3.17;;
75417;SDS011;63997;52.112;5.420;2023-03-03T09:28:34;8.35;;;3.40;;
75417;SDS011;63997;52.112;5.420;2023-03-03T09:31:01;8.95;;;3.10;;
75417;SDS011;63997;52.112;5.420;2023-03-03T09:33:43;8.30;;;3.78;;
75417;SDS011;63997;52.112;5.420;2023-03-03T09:36:23;6.93;;;3.30;;
75417;SDS011;63997;52.112;5.420;2023-03-03T09:38:51;9.43;;;3.07;;
75417;SDS011;63997;52.112;5.420;2023-03-03T09:46:58;5.55;;;2.95;;
75417;SDS011;63997;52.112;5.420;2023-03-03T09:55:21;5.78;;;2.40;;
75417;SDS011;63997;52.112;5.420;2023-03-03T09:58:22;5.50;;;2.95;;
75417;SDS011;63997;52.112;5.420;2023-03-03T10:04:03;10.65;;;3.25;;
75417;SDS011;63997;52.112;5.420;2023-03-03T10:06:59;9.70;;;2.77;;
75417;SDS011;63997;52.112;5.420;2023-03-03T10:13:05;6.63;;;2.22;;
75417;SDS011;63997;52.112;5.420;2023-03-03T10:15:52;5.03;;;2.13;;
75417;SDS011;63997;52.112;5.420;2023-03-03T10:19:02;10.57;;;2.33;;
75417;SDS011;63997;52.112;5.420;2023-03-03T10:21:43;5.63;;;2.60;;
75417;SDS011;63997;52.112;5.420;2023-03-03T10:25:00;5.63;;;2.65;;
75417;SDS011;63997;52.112;5.420;2023-03-03T10:29:59;6.72;;;2.38;;
75417;SDS011;63997;52.112;5.420;2023-03-03T10:35:19;8.33;;;2.50;;
75417;SDS011;63997;52.112;5.420;2023-03-03T10:37:50;6.95;;;3.63;;
75417;SDS011;63997;52.112;5.420;2023-03-03T10:40:42;8.02;;;2.80;;
75417;SDS011;63997;52.112;5.420;2023-03-03T10:46:19;4.97;;;2.70;;
75417;SDS011;63997;52.112;5.420;2023-03-03T10:52:05;5.13;;;2.20;;
75417;SDS011;63997;52.112;5.420;2023-03-03T10:58:01;6.80;;;2.17;;
75417;SDS011;63997;52.112;5.420;2023-03-03T11:00:49;7.65;;;2.40;;
75417;SDS011;63997;52.112;5.420;2023-03-03T11:08:50;4.00;;;2.67;;
75417;SDS011;63997;52.112;5.420;2023-03-03T11:11:24;7.43;;;2.20;;
75417;SDS011;63997;52.112;5.420;2023-03-03T11:20:02;4.90;;;2.10;;
75417;SDS011;63997;52.112;5.420;2023-03-03T11:22:42;6.97;;;2.78;;
75417;SDS011;63997;52.112;5.420;2023-03-03T11:33:31;3.72;;;1.90;;
75417;SDS011;63997;52.112;5.420;2023-03-03T11:38:50;2.97;;;1.08;;
75417;SDS011;63997;52.112;5.420;2023-03-03T11:44:03;5.47;;;1.80;;
75417;SDS011;63997;52.112;5.420;2023-03-03T11:46:39;6.65;;;2.22;;
75417;SDS011;63997;52.112;5.420;2023-03-03T11:49:16;3.22;;;1.27;;
75417;SDS011;63997;52.112;5.420;2023-03-03T11:51:50;3.42;;;1.35;;
75417;SDS011;63997;52.112;5.420;2023-03-03T11:57:31;3.00;;;0.80;;
75417;SDS011;63997;52.112;5.420;2023-03-03T12:03:20;1.98;;;0.50;;
75417;SDS011;63997;52.112;5.420;2023-03-03T12:06:02;2.30;;;0.65;;
75417;SDS011;63997;52.112;5.420;2023-03-03T12:08:52;2.63;;;0.93;;
75417;SDS011;63997;52.112;5.420;2023-03-03T12:11:38;1.67;;;0.67;;
75417;SDS011;63997;52.112;5.420;2023-03-03T12:22:30;2.33;;;0.43;;
75417;SDS011;63997;52.112;5.420;2023-03-03T12:27:40;2.97;;;0.73;;
75417;SDS011;63997;52.112;5.420;2023-03-03T12:30:16;1.42;;;0.60;;
75417;SDS011;63997;52.112;5.420;2023-03-03T12:33:06;1.40;;;0.40;;
75417;SDS011;63997;52.112;5.420;2023-03-03T12:35:45;1.00;;;0.25;;
75417;SDS011;63997;52.112;5.420;2023-03-03T12:41:11;3.35;;;0.60;;
75417;SDS011;63997;52.112;5.420;2023-03-03T12:43:54;1.17;;;0.43;;
75417;SDS011;63997;52.112;5.420;2023-03-03T12:49:05;1.00;;;0.30;;
75417;SDS011;63997;52.112;5.420;2023-03-03T12:54:34;2.72;;;0.60;;
75417;SDS011;63997;52.112;5.420;2023-03-03T12:57:20;2.15;;;0.60;;
75417;SDS011;63997;52.112;5.420;2023-03-03T13:05:28;1.27;;;0.40;;
75417;SDS011;63997;52.112;5.420;2023-03-03T13:08:23;2.45;;;0.80;;
75417;SDS011;63997;52.112;5.420;2023-03-03T13:11:40;1.50;;;0.65;;
75417;SDS011;63997;52.112;5.420;2023-03-03T13:14:26;2.50;;;0.80;;
75417;SDS011;63997;52.112;5.420;2023-03-03T13:25:06;7.20;;;1.25;;
75417;SDS011;63997;52.112;5.420;2023-03-03T13:27:47;2.05;;;0.90;;
75417;SDS011;63997;52.112;5.420;2023-03-03T13:30:24;2.00;;;0.75;;
75417;SDS011;63997;52.112;5.420;2023-03-03T13:38:09;2.70;;;0.57;;
75417;SDS011;63997;52.112;5.420;2023-03-03T13:40:43;1.67;;;0.65;;
75417;SDS011;63997;52.112;5.420;2023-03-03T13:43:14;1.33;;;0.70;;
75417;SDS011;63997;52.112;5.420;2023-03-03T13:48:44;2.67;;;0.60;;
75417;SDS011;63997;52.112;5.420;2023-03-03T14:00:13;3.00;;;0.90;;
75417;SDS011;63997;52.112;5.420;2023-03-03T14:05:43;1.88;;;0.77;;
75417;SDS011;63997;52.112;5.420;2023-03-03T14:08:21;2.58;;;0.68;;
75417;SDS011;63997;52.112;5.420;2023-03-03T14:14:02;0.93;;;0.50;;
75417;SDS011;63997;52.112;5.420;2023-03-03T14:16:51;2.67;;;0.80;;
75417;SDS011;63997;52.112;5.420;2023-03-03T14:22:28;1.88;;;0.82;;
75417;SDS011;63997;52.112;5.420;2023-03-03T14:25:17;1.50;;;0.73;;
75417;SDS011;63997;52.112;5.420;2023-03-03T14:30:27;2.00;;;0.43;;
75417;SDS011;63997;52.112;5.420;2023-03-03T14:40:34;4.17;;;0.33;;
75417;SDS011;63997;52.112;5.420;2023-03-03T14:43:07;2.47;;;0.28;;
75417;SDS011;63997;52.112;5.420;2023-03-03T14:45:52;1.52;;;0.30;;
75417;SDS011;63997;52.112;5.420;2023-03-03T14:50:50;1.08;;;0.30;;
75417;SDS011;63997;52.112;5.420;2023-03-03T14:53:20;0.83;;;0.30;;
75417;SDS011;63997;52.112;5.420;2023-03-03T14:55:55;1.70;;;0.30;;
75417;SDS011;63997;52.112;5.420;2023-03-03T14:58:41;1.50;;;0.40;;
75417;SDS011;63997;52.112;5.420;2023-03-03T15:01:14;1.30;;;0.38;;
75417;SDS011;63997;52.112;5.420;2023-03-03T15:09:27;1.90;;;0.40;;
75417;SDS011;63997;52.112;5.420;2023-03-03T15:12:16;0.95;;;0.50;;
75417;SDS011;63997;52.112;5.420;2023-03-03T15:15:33;1.35;;;0.40;;
75417;SDS011;63997;52.112;5.420;2023-03-03T15:17:54;2.50;;;0.57;;
75417;SDS011;63997;52.112;5.420;2023-03-03T15:20:40;1.33;;;1.00;;
75417;SDS011;63997;52.112;5.420;2023-03-03T15:28:44;1.23;;;0.40;;
75417;SDS011;63997;52.112;5.420;2023-03-03T15:37:15;2.05;;;0.45;;
75417;SDS011;63997;52.112;5.420;2023-03-03T15:42:48;0.95;;;0.55;;
75417;SDS011;63997;52.112;5.420;2023-03-03T15:45:36;1.08;;;0.50;;
75417;SDS011;63997;52.112;5.420;2023-03-03T15:51:42;3.15;;;0.68;;
75417;SDS011;63997;52.112;5.420;2023-03-03T15:57:15;1.80;;;0.40;;
75417;SDS011;63997;52.112;5.420;2023-03-03T16:05:29;2.28;;;0.50;;
75417;SDS011;63997;52.112;5.420;2023-03-03T16:08:13;3.70;;;0.40;;
75417;SDS011;63997;52.112;5.420;2023-03-03T16:13:58;1.98;;;0.30;;
75417;SDS011;63997;52.112;5.420;2023-03-03T16:16:42;1.97;;;0.33;;
75417;SDS011;63997;52.112;5.420;2023-03-03T16:19:37;3.90;;;0.60;;
75417;SDS011;63997;52.112;5.420;2023-03-03T16:28:25;2.95;;;0.50;;
75417;SDS011;63997;52.112;5.420;2023-03-03T16:31:05;1.10;;;0.30;;
75417;SDS011;63997;52.112;5.420;2023-03-03T16:36:25;1.13;;;0.30;;
75417;SDS011;63997;52.112;5.420;2023-03-03T16:39:12;3.97;;;0.52;;
75417;SDS011;63997;52.112;5.420;2023-03-03T16:41:53;0.80;;;0.40;;
75417;SDS011;63997;52.112;5.420;2023-03-03T16:44:38;1.80;;;0.67;;
75417;SDS011;63997;52.112;5.420;2023-03-03T16:52:53;1.42;;;0.20;;
75417;SDS011;63997;52.112;5.420;2023-03-03T16:55:47;4.88;;;0.50;;
75417;SDS011;63997;52.112;5.420;2023-03-03T17:07:21;4.32;;;0.40;;
75417;SDS011;63997;52.112;5.420;2023-03-03T17:12:46;3.43;;;0.67;;
75417;SDS011;63997;52.112;5.420;2023-03-03T17:21:09;4.40;;;0.50;;
75417;SDS011;63997;52.112;5.420;2023-03-03T17:24:04;4.50;;;0.60;;
75417;SDS011;63997;52.112;5.420;2023-03-03T17:37:12;3.17;;;0.68;;
75417;SDS011;63997;52.112;5.420;2023-03-03T17:45:18;2.58;;;0.40;;
75417;SDS011;63997;52.112;5.420;2023-03-03T17:58:36;9.82;;;1.55;;
75417;SDS011;63997;52.112;5.420;2023-03-03T18:01:16;3.50;;;0.70;;
75417;SDS011;63997;52.112;5.420;2023-03-03T18:03:54;6.15;;;0.60;;
75417;SDS011;63997;52.112;5.420;2023-03-03T18:12:51;4.97;;;0.98;;
75417;SDS011;63997;52.112;5.420;2023-03-03T18:27:11;5.80;;;1.25;;
75417;SDS011;63997;52.112;5.420;2023-03-03T18:30:12;8.07;;;0.98;;
75417;SDS011;63997;52.112;5.420;2023-03-03T18:41:01;6.55;;;1.05;;
75417;SDS011;63997;52.112;5.420;2023-03-03T18:46:06;9.48;;;1.40;;
75417;SDS011;63997;52.112;5.420;2023-03-03T18:51:11;9.52;;;1.40;;
75417;SDS011;63997;52.112;5.420;2023-03-03T18:54:03;5.72;;;0.93;;
75417;SDS011;63997;52.112;5.420;2023-03-03T19:01:51;5.37;;;0.90;;
75417;SDS011;63997;52.112;5.420;2023-03-03T19:04:18;12.48;;;1.55;;
75417;SDS011;63997;52.112;5.420;2023-03-03T19:12:10;10.15;;;1.25;;
75417;SDS011;63997;52.112;5.420;2023-03-03T19:14:39;8.87;;;1.43;;
75417;SDS011;63997;52.112;5.420;2023-03-03T19:20:06;7.55;;;1.05;;
75417;SDS011;63997;52.112;5.420;2023-03-03T19:22:41;7.88;;;1.52;;
75417;SDS011;63997;52.112;5.420;2023-03-03T19:25:25;9.40;;;1.40;;
75417;SDS011;63997;52.112;5.420;2023-03-03T19:30:31;10.13;;;1.40;;
75417;SDS011;63997;52.112;5.420;2023-03-03T19:38:43;11.60;;;1.50;;
75417;SDS011;63997;52.112;5.420;2023-03-03T19:57:53;15.40;;;1.30;;
75417;SDS011;63997;52.112;5.420;2023-03-03T20:00:41;12.52;;;1.40;;
75417;SDS011;63997;52.112;5.420;2023-03-03T20:08:51;9.60;;;1.20;;
75417;SDS011;63997;52.112;5.420;2023-03-03T20:14:54;6.18;;;0.98;;
75417;SDS011;63997;52.112;5.420;2023-03-03T20:17:14;10.43;;;1.35;;
75417;SDS011;63997;52.112;5.420;2023-03-03T20:25:35;9.15;;;1.55;;
75417;SDS011;63997;52.112;5.420;2023-03-03T20:34:10;8.65;;;1.05;;
75417;SDS011;63997;52.112;5.420;2023-03-03T20:37:07;10.73;;;1.63;;
75417;SDS011;63997;52.112;5.420;2023-03-03T20:39:49;13.75;;;1.30;;
75417;SDS011;63997;52.112;5.420;2023-03-03T20:42:29;12.90;;;1.67;;
75417;SDS011;63997;52.112;5.420;2023-03-03T20:45:19;10.05;;;1.48;;
75417;SDS011;63997;52.112;5.420;2023-03-03T20:53:42;10.10;;;1.45;;
75417;SDS011;63997;52.112;5.420;2023-03-03T20:59:35;9.63;;;1.20;;
75417;SDS011;63997;52.112;5.420;2023-03-03T21:05:16;8.77;;;1.50;;
75417;SDS011;63997;52.112;5.420;2023-03-03T21:07:52;13.80;;;2.28;;
75417;SDS011;63997;52.112;5.420;2023-03-03T21:10:26;9.48;;;1.40;;
75417;SDS011;63997;52.112;5.420;2023-03-03T21:13:23;11.50;;;1.45;;
75417;SDS011;63997;52.112;5.420;2023-03-03T21:16:04;9.57;;;2.30;;